Time;durP1;ratioP1;P1;durP2;ratioP2;P2;SDS_P1;SDS_P2;PMS_P1;PMS_P2;Temp;Humidity;BMP_temperature;BMP_pressure;BME280_temperature;BME280_humidity;BME280_pressure;Samples;Min_cycle;Max_cycle;Signal;HPM_P1;HPM_P2
2023/05/14 00:00:46;;;;;;;;;;;13.80;99.90;;;;;;5032085;28;19905;-41
2023/05/14 00:03:12;;;;;;;;;;;13.80;99.90;;;;;;5032020;28;20424;-41
2023/05/14 00:05:37;;;;;;;;;;;13.80;99.90;;;;;;5032009;28;19905;-40
2023/05/14 00:08:03;;;;;;;;;;;13.70;99.90;;;;;;5031454;28;20357;-41
2023/05/14 00:10:29;;;;;;;;;;;13.70;99.90;;;;;;5031905;28;19963;-40
2023/05/14 00:12:54;;;;;;;;;;;13.70;99.90;;;;;;5032364;28;20042;-40
2023/05/14 00:15:20;;;;;;;;;;;13.70;99.90;;;;;;5031853;28;19916;-40
2023/05/14 00:17:45;;;;;;;;;;;13.80;99.90;;;;;;5031408;28;19905;-41
2023/05/14 00:20:11;;;;;;;;;;;13.80;99.90;;;;;;5031873;28;20366;-41
2023/05/14 00:22:38;;;;;;;;;;;13.70;99.90;;;;;;5031943;28;19905;-40
2023/05/14 00:25:03;;;;;;;;;;;13.70;99.90;;;;;;5032198;28;19909;-40
2023/05/14 00:27:29;;;;;;;;;;;13.70;99.90;;;;;;5031163;28;19931;-41
2023/05/14 00:29:55;;;;;;;;;;;13.70;99.90;;;;;;5031811;28;19959;-40
2023/05/14 00:32:20;;;;;;;;;;;13.70;99.90;;;;;;5031806;28;20380;-40
2023/05/14 00:34:46;;;;;;;;;;;13.70;99.90;;;;;;5031624;28;19905;-41
2023/05/14 00:37:11;;;;;;;;;;;13.70;99.90;;;;;;5031303;28;19966;-40
2023/05/14 00:39:37;;;;;;;;;;;13.70;99.90;;;;;;5034859;28;20512;-40
2023/05/14 00:42:02;;;;;;;;;;;13.70;99.90;;;;;;5035365;28;19948;-40
2023/05/14 00:44:28;;;;;;;;;;;13.70;99.90;;;;;;5035361;28;19920;-41
2023/05/14 00:46:53;;;;;;;;;;;13.70;99.90;;;;;;5034819;28;19909;-41
2023/05/14 00:49:19;;;;;;;;;;;13.70;99.90;;;;;;5035557;28;19905;-40
2023/05/14 00:51:45;;;;;;;;;;;13.70;99.90;;;;;;5035362;28;20392;-40
2023/05/14 00:54:15;;;;;;;;;;;13.70;99.90;;;;;;5035559;28;19988;-40
2023/05/14 00:56:42;;;;;;;;;;;13.70;99.90;;;;;;5034560;28;20037;-41
2023/05/14 00:59:07;;;;;;;;;;;13.70;99.90;;;;;;5035206;28;20337;-40
2023/05/14 01:01:33;;;;;;;;;;;13.70;99.90;;;;;;5035179;28;19908;-41
2023/05/14 01:03:59;;;;;;;;;;;13.70;99.90;;;;;;5035054;28;19912;-41
2023/05/14 01:06:31;;;;;;;;;;;13.70;99.90;;;;;;5033486;28;20007;-40
2023/05/14 01:09:14;;;;;;;;;;;13.70;99.90;;;;;;5034928;28;19912;-40
2023/05/14 01:11:46;;;;;;;;;;;13.70;99.90;;;;;;5034920;28;19905;-41
2023/05/14 01:14:31;;;;;;;;;;;13.70;99.90;;;;;;5035049;28;19909;-40
2023/05/14 01:16:58;;;;;;;;;;;13.70;99.90;;;;;;5034347;28;19908;-40
2023/05/14 01:19:32;;;;;;;;;;;13.70;99.90;;;;;;5035173;28;19913;-40
2023/05/14 01:21:58;;;;;;;;;;;13.80;99.90;;;;;;5034892;28;19951;-40
2023/05/14 01:24:23;;;;;;;;;;;13.70;99.90;;;;;;5034774;28;19909;-40
2023/05/14 01:26:49;;;;;;;;;;;13.70;99.90;;;;;;5034382;28;19909;-40
2023/05/14 01:29:18;;;;;;;;;;;13.70;99.90;;;;;;5034636;28;19911;-41
2023/05/14 01:31:44;;;;;;;;;;;13.70;99.90;;;;;;5034649;28;20373;-40
2023/05/14 01:34:11;;;;;;;;;;;13.70;99.90;;;;;;5034613;28;19912;-40
2023/05/14 01:36:37;;;;;;;;;;;13.70;99.90;;;;;;5034339;28;19909;-42
2023/05/14 01:39:03;;;;;;;;;;;13.70;99.90;;;;;;5035658;28;19939;-44
2023/05/14 01:41:29;;;;;;;;;;;13.70;99.90;;;;;;5035909;28;19909;-41
2023/05/14 01:43:56;;;;;;;;;;;13.70;99.90;;;;;;5036313;28;19912;-41
2023/05/14 01:46:23;;;;;;;;;;;13.70;99.90;;;;;;5035691;28;19905;-41
2023/05/14 01:48:49;;;;;;;;;;;13.70;99.90;;;;;;5036071;28;19905;-41
2023/05/14 01:51:14;;;;;;;;;;;13.70;99.90;;;;;;5035945;28;19905;-40
2023/05/14 01:53:40;;;;;;;;;;;13.70;99.90;;;;;;5036170;28;20393;-41
2023/05/14 01:56:05;;;;;;;;;;;13.70;99.90;;;;;;5035404;28;19960;-41
2023/05/14 01:58:31;;;;;;;;;;;13.70;99.90;;;;;;5036192;28;19905;-41
2023/05/14 02:00:56;;;;;;;;;;;13.70;99.90;;;;;;5036313;28;19913;-42
2023/05/14 02:03:22;;;;;;;;;;;13.70;99.90;;;;;;5036168;28;20192;-41
2023/05/14 02:05:48;;;;;;;;;;;13.70;99.90;;;;;;5034823;28;19905;-41
2023/05/14 02:08:13;;;;;;;;;;;13.70;99.90;;;;;;5035445;28;19939;-41
2023/05/14 02:10:39;;;;;;;;;;;13.70;99.90;;;;;;5036189;28;20255;-44
2023/05/14 02:13:04;;;;;;;;;;;13.70;99.90;;;;;;5036096;28;20003;-43
2023/05/14 02:15:30;;;;;;;;;;;13.70;99.90;;;;;;5035856;28;19912;-43
2023/05/14 02:17:55;;;;;;;;;;;13.70;99.90;;;;;;5035867;28;19911;-40
2023/05/14 02:20:21;;;;;;;;;;;13.70;99.90;;;;;;5035547;28;19911;-41
2023/05/14 02:22:47;;;;;;;;;;;13.70;99.90;;;;;;5035588;28;19905;-41
2023/05/14 02:25:12;;;;;;;;;;;13.70;99.90;;;;;;5035414;28;19905;-41
2023/05/14 02:27:38;;;;;;;;;;;13.70;99.90;;;;;;5034646;28;19936;-41
2023/05/14 02:30:03;;;;;;;;;;;13.70;99.90;;;;;;5035269;28;19960;-41
2023/05/14 02:32:29;;;;;;;;;;;13.70;99.90;;;;;;5035195;28;19905;-42
2023/05/14 02:34:54;;;;;;;;;;;13.70;99.90;;;;;;5035014;28;20377;-43
2023/05/14 02:37:20;;;;;;;;;;;13.70;99.90;;;;;;5034793;28;19958;-42
2023/05/14 02:39:45;;;;;;;;;;;13.70;99.90;;;;;;5035305;28;19920;-47
2023/05/14 02:42:11;;;;;;;;;;;13.70;99.90;;;;;;5035149;28;19912;-42
2023/05/14 02:44:36;;;;;;;;;;;13.70;99.90;;;;;;5035517;28;19936;-41
2023/05/14 02:47:02;;;;;;;;;;;13.70;99.90;;;;;;5034714;28;20401;-41
2023/05/14 02:49:28;;;;;;;;;;;13.70;99.90;;;;;;5035155;28;19912;-41
2023/05/14 02:51:53;;;;;;;;;;;13.70;99.90;;;;;;5034751;28;20255;-41
2023/05/14 02:54:19;;;;;;;;;;;13.70;99.90;;;;;;5034971;28;20342;-41
2023/05/14 02:56:44;;;;;;;;;;;13.70;99.90;;;;;;5034309;28;20001;-43
2023/05/14 02:59:10;;;;;;;;;;;13.70;99.90;;;;;;5035156;28;19912;-43
2023/05/14 03:01:35;;;;;;;;;;;13.70;99.90;;;;;;5034257;28;19913;-42
2023/05/14 03:04:01;;;;;;;;;;;13.70;99.90;;;;;;5034127;28;20377;-41
2023/05/14 03:06:26;;;;;;;;;;;13.70;99.90;;;;;;5034464;28;19979;-43
2023/05/14 03:08:52;;;;;;;;;;;13.70;99.90;;;;;;5034323;28;19905;-42
2023/05/14 03:11:17;;;;;;;;;;;13.70;99.90;;;;;;5034347;28;19905;-41
2023/05/14 03:13:43;;;;;;;;;;;13.70;99.90;;;;;;5034593;28;19913;-42
2023/05/14 03:16:08;;;;;;;;;;;13.60;99.90;;;;;;5034221;28;19908;-41
2023/05/14 03:18:35;;;;;;;;;;;13.70;99.90;;;;;;5034367;28;20000;-41
2023/05/14 03:21:01;;;;;;;;;;;13.70;99.90;;;;;;5034613;28;20278;-42
2023/05/14 03:23:26;;;;;;;;;;;13.70;99.90;;;;;;5034669;28;19906;-41
2023/05/14 03:25:52;;;;;;;;;;;13.70;99.90;;;;;;5034064;28;20358;-42
2023/05/14 03:28:17;;;;;;;;;;;13.70;99.90;;;;;;5034181;28;20278;-43
2023/05/14 03:30:43;;;;;;;;;;;13.60;99.90;;;;;;5034751;28;19909;-45
2023/05/14 03:33:08;;;;;;;;;;;13.60;99.90;;;;;;5034470;28;19968;-43
2023/05/14 03:35:34;;;;;;;;;;;13.60;99.90;;;;;;5034622;28;19909;-41
2023/05/14 03:37:59;;;;;;;;;;;13.60;99.90;;;;;;5033957;28;19912;-45
2023/05/14 03:40:25;;;;;;;;;;;13.60;99.90;;;;;;5034484;28;19909;-44
2023/05/14 03:42:51;;;;;;;;;;;13.60;99.90;;;;;;5034399;28;19911;-42
2023/05/14 03:45:16;;;;;;;;;;;13.60;99.90;;;;;;5034277;28;19909;-44
2023/05/14 03:47:42;;;;;;;;;;;13.60;99.90;;;;;;5033648;28;20285;-42
2023/05/14 03:50:07;;;;;;;;;;;13.60;99.90;;;;;;5033801;28;19963;-41
2023/05/14 03:52:33;;;;;;;;;;;13.60;99.90;;;;;;5034026;28;19909;-41
2023/05/14 03:54:58;;;;;;;;;;;13.60;99.90;;;;;;5033881;28;19996;-41
2023/05/14 03:57:24;;;;;;;;;;;13.60;99.90;;;;;;5033585;28;19905;-41
2023/05/14 03:59:49;;;;;;;;;;;13.60;99.90;;;;;;5034032;28;19909;-41
2023/05/14 04:02:15;;;;;;;;;;;13.60;99.90;;;;;;5033796;28;20332;-42
2023/05/14 04:04:41;;;;;;;;;;;13.60;99.90;;;;;;5033846;28;20089;-44
2023/05/14 04:07:07;;;;;;;;;;;13.60;99.90;;;;;;5033814;28;19905;-43
2023/05/14 04:09:33;;;;;;;;;;;13.60;99.90;;;;;;5033966;28;19945;-43
2023/05/14 04:11:58;;;;;;;;;;;13.60;99.90;;;;;;5033973;28;19931;-41
2023/05/14 04:14:24;;;;;;;;;;;13.60;99.90;;;;;;5036927;28;20338;-41
2023/05/14 04:16:49;;;;;;;;;;;13.60;99.90;;;;;;5037335;28;20370;-41
2023/05/14 04:19:15;;;;;;;;;;;13.60;99.90;;;;;;5038030;28;19905;-41
2023/05/14 04:21:40;;;;;;;;;;;13.60;99.90;;;;;;5038057;28;19912;-40
2023/05/14 04:24:06;;;;;;;;;;;13.60;99.90;;;;;;5037722;28;19928;-41
2023/05/14 04:26:31;;;;;;;;;;;13.60;99.90;;;;;;5037626;28;19905;-43
2023/05/14 04:29:01;;;;;;;;;;;13.60;99.90;;;;;;5037681;28;19905;-42
2023/05/14 04:31:27;;;;;;;;;;;13.60;99.90;;;;;;5037550;28;19913;-42
2023/05/14 04:33:52;;;;;;;;;;;13.60;99.90;;;;;;5037678;28;20035;-41
2023/05/14 04:36:18;;;;;;;;;;;13.60;99.90;;;;;;5037230;28;20019;-44
2023/05/14 04:38:43;;;;;;;;;;;13.60;99.90;;;;;;5037351;28;19917;-45
2023/05/14 04:41:09;;;;;;;;;;;13.60;99.90;;;;;;5037324;28;19905;-41
2023/05/14 04:43:34;;;;;;;;;;;13.60;99.90;;;;;;5037647;28;19905;-41
2023/05/14 04:46:00;;;;;;;;;;;13.60;99.90;;;;;;5036935;28;19905;-41
2023/05/14 04:48:26;;;;;;;;;;;13.60;99.90;;;;;;5037203;28;19905;-41
2023/05/14 04:50:52;;;;;;;;;;;13.60;99.90;;;;;;5037830;28;20004;-41
2023/05/14 04:53:17;;;;;;;;;;;13.60;99.90;;;;;;5037347;28;20047;-41
2023/05/14 04:55:43;;;;;;;;;;;13.60;99.90;;;;;;5037117;28;20152;-42
2023/05/14 04:58:08;;;;;;;;;;;13.60;99.90;;;;;;5037223;28;20309;-41
2023/05/14 05:00:34;;;;;;;;;;;13.60;99.90;;;;;;5037370;28;19999;-40
2023/05/14 05:02:59;;;;;;;;;;;13.60;99.90;;;;;;5037327;28;19915;-41
2023/05/14 05:05:25;;;;;;;;;;;13.60;99.90;;;;;;5036704;28;19905;-43
2023/05/14 05:07:50;;;;;;;;;;;13.60;99.90;;;;;;5036628;28;19996;-44
2023/05/14 05:10:16;;;;;;;;;;;13.60;99.90;;;;;;5037023;28;20328;-40
2023/05/14 05:12:41;;;;;;;;;;;13.60;99.90;;;;;;5037119;28;20494;-40
2023/05/14 05:15:08;;;;;;;;;;;13.60;99.90;;;;;;5036779;28;19916;-41
2023/05/14 05:17:33;;;;;;;;;;;13.60;99.90;;;;;;5036319;28;19958;-44
2023/05/14 05:19:59;;;;;;;;;;;13.60;99.90;;;;;;5036871;28;19988;-42
2023/05/14 05:22:25;;;;;;;;;;;13.60;99.90;;;;;;5036958;28;19999;-41
2023/05/14 05:24:50;;;;;;;;;;;13.60;99.90;;;;;;5035145;28;19905;-40
2023/05/14 05:27:16;;;;;;;;;;;13.60;99.90;;;;;;5036415;28;19913;-41
2023/05/14 05:29:42;;;;;;;;;;;13.60;99.90;;;;;;5036543;28;19909;-41
2023/05/14 05:32:07;;;;;;;;;;;13.60;99.90;;;;;;5036759;28;20281;-43
2023/05/14 05:34:33;;;;;;;;;;;13.60;99.90;;;;;;5036596;28;19909;-41
2023/05/14 05:36:59;;;;;;;;;;;13.60;99.90;;;;;;5036102;28;19954;-41
2023/05/14 05:39:24;;;;;;;;;;;13.60;99.90;;;;;;5036326;28;19924;-43
2023/05/14 05:41:50;;;;;;;;;;;13.60;99.90;;;;;;5036311;28;20401;-41
2023/05/14 05:44:15;;;;;;;;;;;13.60;99.90;;;;;;5036395;28;19946;-40
2023/05/14 05:46:41;;;;;;;;;;;13.60;99.90;;;;;;5035904;28;20000;-41
2023/05/14 05:49:06;;;;;;;;;;;13.60;99.90;;;;;;5036149;28;20432;-41
2023/05/14 05:51:32;;;;;;;;;;;13.60;99.90;;;;;;5036218;28;19912;-41
2023/05/14 05:53:57;;;;;;;;;;;13.60;99.90;;;;;;5036459;28;19912;-41
2023/05/14 05:56:23;;;;;;;;;;;13.60;99.90;;;;;;5035747;28;20374;-44
2023/05/14 05:58:48;;;;;;;;;;;13.50;99.90;;;;;;5035910;28;19995;-44
2023/05/14 06:01:14;;;;;;;;;;;13.60;99.90;;;;;;5036175;28;19913;-41
2023/05/14 06:03:39;;;;;;;;;;;13.60;99.90;;;;;;5036053;28;19912;-42
2023/05/14 06:06:05;;;;;;;;;;;13.60;99.90;;;;;;5035790;28;19916;-42
2023/05/14 06:08:30;;;;;;;;;;;13.60;99.90;;;;;;5035972;28;19960;-43
2023/05/14 06:10:56;;;;;;;;;;;13.60;99.90;;;;;;5035853;28;19912;-41
2023/05/14 06:13:22;;;;;;;;;;;13.60;99.90;;;;;;5034387;28;19918;-41
2023/05/14 06:15:47;;;;;;;;;;;13.60;99.90;;;;;;5035370;28;20366;-41
2023/05/14 06:18:13;;;;;;;;;;;13.60;99.90;;;;;;5035677;28;19905;-41
2023/05/14 06:20:40;;;;;;;;;;;13.60;99.90;;;;;;5035416;28;20286;-44
2023/05/14 06:23:06;;;;;;;;;;;13.60;99.90;;;;;;5035676;28;19947;-43
2023/05/14 06:25:32;;;;;;;;;;;13.60;99.90;;;;;;5035752;28;19909;-44
2023/05/14 06:27:58;;;;;;;;;;;13.60;99.90;;;;;;5034966;28;19905;-41
2023/05/14 06:30:23;;;;;;;;;;;13.60;99.90;;;;;;5035123;28;19913;-41
2023/05/14 06:32:49;;;;;;;;;;;13.60;99.90;;;;;;5035165;28;19944;-41
2023/05/14 06:35:14;;;;;;;;;;;13.60;99.90;;;;;;5035088;28;20325;-41
2023/05/14 06:37:40;;;;;;;;;;;13.60;99.90;;;;;;5034569;28;19930;-41
2023/05/14 06:40:06;;;;;;;;;;;13.60;99.90;;;;;;5035272;28;19913;-41
2023/05/14 06:42:31;;;;;;;;;;;13.60;99.90;;;;;;5035217;28;19905;-40
2023/05/14 06:44:57;;;;;;;;;;;13.60;99.90;;;;;;5034802;28;20393;-42
2023/05/14 06:47:22;;;;;;;;;;;13.60;99.90;;;;;;5034878;28;19909;-41
2023/05/14 06:49:48;;;;;;;;;;;13.60;99.90;;;;;;5034934;28;19963;-41
2023/05/14 06:52:13;;;;;;;;;;;13.60;99.90;;;;;;5034911;28;19916;-41
2023/05/14 06:54:39;;;;;;;;;;;13.60;99.90;;;;;;5035332;28;19905;-44
2023/05/14 06:57:04;;;;;;;;;;;13.60;99.90;;;;;;5034207;28;20285;-44
2023/05/14 06:59:30;;;;;;;;;;;13.60;99.90;;;;;;5034530;28;19909;-41
2023/05/14 07:01:55;;;;;;;;;;;13.60;99.90;;;;;;5034884;28;19905;-41
2023/05/14 07:04:21;;;;;;;;;;;13.60;99.90;;;;;;5034719;28;19912;-41
2023/05/14 07:06:46;;;;;;;;;;;13.60;99.90;;;;;;5034429;28;20011;-41
2023/05/14 07:09:12;;;;;;;;;;;13.60;99.90;;;;;;5034942;28;19905;-41
2023/05/14 07:11:37;;;;;;;;;;;13.60;99.90;;;;;;5034695;28;19955;-41
2023/05/14 07:14:03;;;;;;;;;;;13.70;99.90;;;;;;5034418;28;19913;-41
2023/05/14 07:16:28;;;;;;;;;;;13.70;99.90;;;;;;5033902;28;19971;-43
2023/05/14 07:18:54;;;;;;;;;;;13.70;99.90;;;;;;5034540;28;19913;-42
2023/05/14 07:21:19;;;;;;;;;;;13.60;99.90;;;;;;5034334;28;20397;-41
2023/05/14 07:23:45;;;;;;;;;;;13.70;99.90;;;;;;5034349;28;19905;-41
2023/05/14 07:26:10;;;;;;;;;;;13.70;99.90;;;;;;5033855;28;20282;-41
2023/05/14 07:28:36;;;;;;;;;;;13.70;99.90;;;;;;5034026;28;19909;-42
2023/05/14 07:31:03;;;;;;;;;;;13.70;99.90;;;;;;5034472;28;19905;-41
2023/05/14 07:33:29;;;;;;;;;;;13.70;99.90;;;;;;5034972;28;20421;-41
2023/05/14 07:35:54;;;;;;;;;;;13.60;99.90;;;;;;5033944;28;20132;-41
2023/05/14 07:38:20;;;;;;;;;;;13.70;99.90;;;;;;5056740;22;19908;-40
2023/05/14 07:40:46;;;;;;;;;;;13.70;99.90;;;;;;5032307;28;19913;-40
2023/05/14 07:43:11;;;;;;;;;;;13.70;99.90;;;;;;5032277;28;19909;-39
2023/05/14 07:45:40;;;;;;;;;;;13.70;99.90;;;;;;5014488;28;19909;-40
2023/05/14 07:48:05;;;;;;;;;;;13.70;99.90;;;;;;5031644;28;19909;-39
2023/05/14 07:50:31;;;;;;;;;;;13.70;99.90;;;;;;5032329;28;19999;-39
2023/05/14 07:52:56;;;;;;;;;;;13.70;99.90;;;;;;5032134;28;20323;-40
2023/05/14 07:55:22;;;;;;;;;;;13.70;99.90;;;;;;5032101;28;19962;-40
2023/05/14 07:57:47;;;;;;;;;;;13.80;99.90;;;;;;5031725;28;19909;-40
2023/05/14 08:00:13;;;;;;;;;;;13.70;99.90;;;;;;5032043;28;20000;-41
2023/05/14 08:02:38;;;;;;;;;;;13.80;99.90;;;;;;5032112;28;19905;-42
2023/05/14 08:05:04;;;;;;;;;;;13.80;99.90;;;;;;5032084;28;19992;-40
2023/05/14 08:07:30;;;;;;;;;;;13.80;99.90;;;;;;5031445;28;19905;-41
2023/05/14 08:09:55;;;;;;;;;;;13.80;99.90;;;;;;5032220;28;19909;-40
2023/05/14 08:12:21;;;;;;;;;;;13.80;99.90;;;;;;5032003;28;19912;-40
2023/05/14 08:14:46;;;;;;;;;;;13.80;99.90;;;;;;5031953;28;20070;-40
2023/05/14 08:17:12;;;;;;;;;;;13.80;99.90;;;;;;5031447;28;19952;-40
2023/05/14 08:19:37;;;;;;;;;;;13.80;99.90;;;;;;5031920;28;19909;-40
2023/05/14 08:22:03;;;;;;;;;;;13.80;99.90;;;;;;5031802;28;19941;-39
2023/05/14 08:24:28;;;;;;;;;;;13.90;99.90;;;;;;5031888;28;19911;-40
2023/05/14 08:26:54;;;;;;;;;;;13.90;99.90;;;;;;5031449;28;20297;-40
2023/05/14 08:29:20;;;;;;;;;;;13.90;99.90;;;;;;5031946;28;19905;-39
2023/05/14 08:31:46;;;;;;;;;;;13.90;99.90;;;;;;5031836;28;20011;-40
2023/05/14 08:34:11;;;;;;;;;;;13.90;99.90;;;;;;5031854;28;19908;-40
2023/05/14 08:36:37;;;;;;;;;;;13.90;99.90;;;;;;5031057;28;20378;-40
2023/05/14 08:39:03;;;;;;;;;;;13.90;99.90;;;;;;5031630;28;19960;-39
2023/05/14 08:41:28;;;;;;;;;;;14.00;99.90;;;;;;5031703;28;19948;-40
2023/05/14 08:44:03;;;;;;;;;;;13.90;99.90;;;;;;5031994;28;20003;-39
2023/05/14 08:46:29;;;;;;;;;;;14.00;99.90;;;;;;5031227;28;19951;-40
2023/05/14 08:49:13;;;;;;;;;;;14.00;99.90;;;;;;5031670;28;19905;-40
2023/05/14 08:51:39;;;;;;;;;;;14.00;99.90;;;;;;5031571;28;19905;-40
2023/05/14 08:54:05;;;;;;;;;;;14.00;99.90;;;;;;5031644;28;19959;-40
2023/05/14 08:56:32;;;;;;;;;;;14.00;99.90;;;;;;5030894;28;19913;-40
2023/05/14 08:58:57;;;;;;;;;;;14.00;99.90;;;;;;5032113;28;20293;-40
2023/05/14 09:01:24;;;;;;;;;;;14.00;99.90;;;;;;5035224;28;19905;-40
2023/05/14 09:03:50;;;;;;;;;;;14.00;99.90;;;;;;5035079;28;19906;-40
2023/05/14 09:06:16;;;;;;;;;;;14.00;99.90;;;;;;5034689;28;19905;-40
2023/05/14 09:08:41;;;;;;;;;;;14.10;99.90;;;;;;5035059;28;19967;-40
2023/05/14 09:11:07;;;;;;;;;;;14.10;99.90;;;;;;5035079;28;20370;-40
2023/05/14 09:13:35;;;;;;;;;;;14.10;99.90;;;;;;5035446;28;19976;-41
2023/05/14 09:16:01;;;;;;;;;;;14.10;99.90;;;;;;5034309;28;20289;-40
2023/05/14 09:18:27;;;;;;;;;;;14.10;99.90;;;;;;5034709;28;20000;-40
2023/05/14 09:20:52;;;;;;;;;;;14.20;99.90;;;;;;5034822;28;19951;-40
2023/05/14 09:23:18;;;;;;;;;;;14.20;99.90;;;;;;5034796;28;19909;-40
2023/05/14 09:25:43;;;;;;;;;;;14.20;99.90;;;;;;5034479;28;19905;-42
2023/05/14 09:28:09;;;;;;;;;;;14.20;99.90;;;;;;5034431;28;19948;-40
2023/05/14 09:30:35;;;;;;;;;;;14.20;99.90;;;;;;5034706;28;19927;-40
2023/05/14 09:33:02;;;;;;;;;;;14.20;99.90;;;;;;5034520;28;19912;-40
2023/05/14 09:35:28;;;;;;;;;;;14.30;99.90;;;;;;5034480;28;20052;-40
2023/05/14 09:37:53;;;;;;;;;;;14.30;99.90;;;;;;5034103;28;19944;-40
2023/05/14 09:40:20;;;;;;;;;;;14.30;99.90;;;;;;5034353;28;19913;-40
2023/05/14 09:42:47;;;;;;;;;;;14.30;99.90;;;;;;5034822;28;19905;-41
2023/05/14 09:45:13;;;;;;;;;;;14.30;99.90;;;;;;5034370;28;19905;-40
2023/05/14 09:47:39;;;;;;;;;;;14.30;99.90;;;;;;5033807;28;19909;-40
2023/05/14 09:50:05;;;;;;;;;;;14.30;99.90;;;;;;5034242;28;19951;-40
2023/05/14 09:52:31;;;;;;;;;;;14.40;99.90;;;;;;5034280;28;20277;-40
2023/05/14 09:54:57;;;;;;;;;;;14.40;99.90;;;;;;5034249;28;19905;-41
2023/05/14 09:57:22;;;;;;;;;;;14.40;99.90;;;;;;5033696;28;19905;-40
2023/05/14 09:59:48;;;;;;;;;;;14.40;99.90;;;;;;5034130;28;20235;-40
2023/05/14 10:02:30;;;;;;;;;;;14.40;99.90;;;;;;5034017;28;19909;-39
2023/05/14 10:04:59;;;;;;;;;;;14.40;99.90;;;;;;5033204;28;20320;-39
2023/05/14 10:07:30;;;;;;;;;;;14.40;99.90;;;;;;5033521;28;19995;-40
2023/05/14 10:09:58;;;;;;;;;;;14.40;99.90;;;;;;5033506;28;19967;-40
2023/05/14 10:12:25;;;;;;;;;;;14.40;99.90;;;;;;5033019;28;19912;-40
2023/05/14 10:14:52;;;;;;;;;;;14.40;99.90;;;;;;5033912;28;19905;-39
2023/05/14 10:17:22;;;;;;;;;;;14.40;99.90;;;;;;5033231;28;19920;-39
2023/05/14 10:19:52;;;;;;;;;;;14.40;99.90;;;;;;5033715;28;19909;-39
2023/05/14 10:22:21;;;;;;;;;;;14.40;99.90;;;;;;5034248;28;19966;-41
2023/05/14 10:24:47;;;;;;;;;;;14.40;99.90;;;;;;5033548;28;19905;-40
2023/05/14 10:27:14;;;;;;;;;;;14.50;99.90;;;;;;5033083;28;19936;-40
2023/05/14 10:29:40;;;;;;;;;;;14.50;99.90;;;;;;5033517;28;19991;-39
2023/05/14 10:32:07;;;;;;;;;;;14.50;99.90;;;;;;5033452;28;19990;-40
2023/05/14 10:34:39;;;;;;;;;;;14.50;99.90;;;;;;5033481;28;19912;-41
2023/05/14 10:37:07;;;;;;;;;;;14.40;99.90;;;;;;5032800;28;19936;-40
2023/05/14 10:39:45;;;;;;;;;;;14.50;99.90;;;;;;5033000;28;19928;-40
2023/05/14 10:42:12;;;;;;;;;;;14.50;99.90;;;;;;5033304;28;19909;-40
2023/05/14 10:44:41;;;;;;;;;;;14.50;99.90;;;;;;5033307;28;19909;-39
2023/05/14 10:47:07;;;;;;;;;;;14.50;99.90;;;;;;5032677;28;19905;-40
2023/05/14 10:49:33;;;;;;;;;;;14.50;99.90;;;;;;5033088;28;19905;-41
2023/05/14 10:51:58;;;;;;;;;;;14.50;99.90;;;;;;5033005;28;19905;-40
2023/05/14 10:54:26;;;;;;;;;;;14.50;99.90;;;;;;5033022;28;19909;-40
2023/05/14 10:56:52;;;;;;;;;;;14.50;99.90;;;;;;5032645;28;19999;-39
2023/05/14 10:59:18;;;;;;;;;;;14.50;99.90;;;;;;5032928;28;20366;-39
2023/05/14 11:01:44;;;;;;;;;;;14.50;99.90;;;;;;5032949;28;20000;-39
2023/05/14 11:04:16;;;;;;;;;;;14.50;99.90;;;;;;5032296;28;19906;-40
2023/05/14 11:06:43;;;;;;;;;;;14.50;99.90;;;;;;5032397;28;19909;-40
2023/05/14 11:09:08;;;;;;;;;;;14.50;99.90;;;;;;5032720;28;19959;-40
2023/05/14 11:11:34;;;;;;;;;;;14.50;99.90;;;;;;5015111;28;19940;-40
2023/05/14 11:14:00;;;;;;;;;;;14.50;99.90;;;;;;5032741;28;19905;-40
2023/05/14 11:16:29;;;;;;;;;;;14.50;99.90;;;;;;5031965;28;19916;-40
2023/05/14 11:19:02;;;;;;;;;;;14.50;99.90;;;;;;5032637;28;19958;-40
2023/05/14 11:21:28;;;;;;;;;;;14.50;99.90;;;;;;5032642;28;19916;-40
2023/05/14 11:23:54;;;;;;;;;;;14.50;99.90;;;;;;5032532;28;20193;-40
2023/05/14 11:26:20;;;;;;;;;;;14.50;99.90;;;;;;5032070;28;20019;-40
2023/05/14 11:28:45;;;;;;;;;;;14.50;99.90;;;;;;5032506;28;20031;-40
2023/05/14 11:31:11;;;;;;;;;;;14.60;99.90;;;;;;5032447;28;20058;-38
2023/05/14 11:33:36;;;;;;;;;;;14.60;99.90;;;;;;5032435;28;19912;-40
2023/05/14 11:36:03;;;;;;;;;;;14.60;99.90;;;;;;5031904;28;20407;-40
2023/05/14 11:38:28;;;;;;;;;;;14.60;99.90;;;;;;5032322;28;19909;-39
2023/05/14 11:40:54;;;;;;;;;;;14.60;99.90;;;;;;5032366;28;20290;-40
2023/05/14 11:43:22;;;;;;;;;;;14.60;99.90;;;;;;5032320;28;19913;-39
2023/05/14 11:45:48;;;;;;;;;;;14.60;99.90;;;;;;5031766;28;20251;-40
2023/05/14 11:48:14;;;;;;;;;;;14.60;99.90;;;;;;5032226;28;19905;-41
2023/05/14 11:50:40;;;;;;;;;;;14.60;99.90;;;;;;5032238;28;20269;-39
2023/05/14 11:53:05;;;;;;;;;;;14.60;99.90;;;;;;5032116;28;20314;-39
2023/05/14 11:55:33;;;;;;;;;;;14.70;99.90;;;;;;5032075;28;20019;-40
2023/05/14 11:57:58;;;;;;;;;;;14.70;99.90;;;;;;5031598;28;19912;-40
2023/05/14 12:00:25;;;;;;;;;;;14.60;99.90;;;;;;5031987;28;19905;-40
2023/05/14 12:02:50;;;;;;;;;;;14.60;99.90;;;;;;5032074;28;20404;-40
2023/05/14 12:05:16;;;;;;;;;;;14.60;99.90;;;;;;5032097;28;19906;-39
2023/05/14 12:07:45;;;;;;;;;;;14.60;99.90;;;;;;5031496;28;19967;-40
2023/05/14 12:10:11;;;;;;;;;;;14.70;99.90;;;;;;5031955;28;19905;-40
2023/05/14 12:12:37;;;;;;;;;;;14.70;99.90;;;;;;5031930;28;19927;-40
2023/05/14 12:15:09;;;;;;;;;;;14.70;99.90;;;;;;5031651;28;19912;-40
2023/05/14 12:17:36;;;;;;;;;;;14.70;99.90;;;;;;5031489;28;19912;-39
2023/05/14 12:20:02;;;;;;;;;;;14.70;99.90;;;;;;5031899;28;19951;-40
2023/05/14 12:22:28;;;;;;;;;;;14.80;99.90;;;;;;5031721;28;19916;-40
2023/05/14 12:24:54;;;;;;;;;;;14.70;99.90;;;;;;5031892;28;19913;-39
2023/05/14 12:27:25;;;;;;;;;;;14.70;99.90;;;;;;5031213;28;19912;-39
2023/05/14 12:30:03;;;;;;;;;;;14.70;99.90;;;;;;5031578;28;19905;-41
2023/05/14 12:32:32;;;;;;;;;;;14.80;99.90;;;;;;5031834;28;19913;-39
2023/05/14 12:34:58;;;;;;;;;;;14.80;99.90;;;;;;5034056;28;19909;-40
2023/05/14 12:37:23;;;;;;;;;;;14.80;99.90;;;;;;5035057;28;19909;-42
2023/05/14 12:39:49;;;;;;;;;;;14.80;99.90;;;;;;5035384;28;20385;-41
2023/05/14 12:42:15;;;;;;;;;;;14.80;99.90;;;;;;5035574;28;19909;-40
2023/05/14 12:44:40;;;;;;;;;;;14.80;99.90;;;;;;5035777;28;19909;-42
2023/05/14 12:47:07;;;;;;;;;;;14.80;99.90;;;;;;5035060;28;19920;-40
2023/05/14 12:49:32;;;;;;;;;;;14.90;99.90;;;;;;5035479;28;19911;-39
2023/05/14 12:51:58;;;;;;;;;;;14.80;99.90;;;;;;5035410;28;19931;-40
2023/05/14 12:54:23;;;;;;;;;;;14.80;99.90;;;;;;5035266;28;19905;-41
2023/05/14 12:56:49;;;;;;;;;;;14.80;99.90;;;;;;5034703;28;19935;-39
2023/05/14 12:59:14;;;;;;;;;;;14.80;99.90;;;;;;5035277;28;19909;-39
2023/05/14 13:01:41;;;;;;;;;;;14.90;99.90;;;;;;5035627;28;19944;-40
2023/05/14 13:04:07;;;;;;;;;;;14.80;99.90;;;;;;5035289;28;19947;-39
2023/05/14 13:06:33;;;;;;;;;;;14.80;99.90;;;;;;5034586;28;19905;-40
2023/05/14 13:09:01;;;;;;;;;;;14.80;99.90;;;;;;5034949;28;19912;-40
2023/05/14 13:11:29;;;;;;;;;;;14.80;99.90;;;;;;5035070;28;19909;-40
2023/05/14 13:13:54;;;;;;;;;;;14.80;99.90;;;;;;5035093;28;19935;-40
2023/05/14 13:16:20;;;;;;;;;;;14.80;99.90;;;;;;5034452;28;19909;-39
2023/05/14 13:18:45;;;;;;;;;;;14.80;99.90;;;;;;5035018;28;20140;-40
2023/05/14 13:21:11;;;;;;;;;;;14.80;99.90;;;;;;5034899;28;20350;-40
2023/05/14 13:23:37;;;;;;;;;;;14.80;99.90;;;;;;5034756;28;19995;-39
2023/05/14 13:26:02;;;;;;;;;;;14.80;99.90;;;;;;5033457;28;19912;-40
2023/05/14 13:28:28;;;;;;;;;;;14.80;99.90;;;;;;5034551;28;19909;-40
2023/05/14 13:31:07;;;;;;;;;;;14.80;99.90;;;;;;5034721;28;19917;-40
2023/05/14 13:33:36;;;;;;;;;;;14.80;99.90;;;;;;5034702;28;19920;-40
2023/05/14 13:36:02;;;;;;;;;;;14.80;99.90;;;;;;5034110;28;19967;-39
2023/05/14 13:38:28;;;;;;;;;;;14.80;99.90;;;;;;5034869;28;19920;-40
2023/05/14 13:40:56;;;;;;;;;;;14.80;99.90;;;;;;5034465;28;19956;-39
2023/05/14 13:43:22;;;;;;;;;;;14.80;99.90;;;;;;5034516;28;19932;-40
2023/05/14 13:45:47;;;;;;;;;;;14.90;99.90;;;;;;5033813;28;19935;-38
2023/05/14 13:48:13;;;;;;;;;;;14.90;99.90;;;;;;5034326;28;19909;-42
2023/05/14 13:50:38;;;;;;;;;;;14.80;99.90;;;;;;5034417;28;20195;-42
2023/05/14 13:53:04;;;;;;;;;;;14.80;99.90;;;;;;5034316;28;19912;-39
2023/05/14 13:55:29;;;;;;;;;;;14.90;99.90;;;;;;5034125;28;19916;-40
2023/05/14 13:57:55;;;;;;;;;;;14.80;99.90;;;;;;5033768;28;19912;-40
2023/05/14 14:00:20;;;;;;;;;;;14.90;99.90;;;;;;5034119;28;19905;-41
2023/05/14 14:02:46;;;;;;;;;;;14.80;99.90;;;;;;5034197;28;19959;-39
2023/05/14 14:05:11;;;;;;;;;;;14.90;99.90;;;;;;5034035;28;20277;-40
2023/05/14 14:07:38;;;;;;;;;;;14.90;99.90;;;;;;5033647;28;20239;-40
2023/05/14 14:10:04;;;;;;;;;;;14.90;99.90;;;;;;5033879;28;19992;-39